createdAt,value
2023-04-19T00:00:45.262Z,466.00
2023-04-19T00:01:45.213Z,465.00
2023-04-19T00:02:45.327Z,463.00
2023-04-19T00:03:45.426Z,463.00
2023-04-19T00:04:45.529Z,460.00
2023-04-19T00:05:45.223Z,459.00
2023-04-19T00:06:45.238Z,460.00
2023-04-19T00:07:45.247Z,461.00
2023-04-19T00:08:45.261Z,463.00
2023-04-19T00:09:45.219Z,463.00
2023-04-19T00:10:45.250Z,465.00
2023-04-19T00:11:45.261Z,467.00
2023-04-19T00:12:45.240Z,467.00
2023-04-19T00:13:45.276Z,472.00
2023-04-19T00:14:45.267Z,469.00
2023-04-19T00:15:45.291Z,469.00
2023-04-19T00:16:45.305Z,464.00
2023-04-19T00:17:45.349Z,465.00
2023-04-19T00:18:45.295Z,464.00
2023-04-19T00:19:45.313Z,467.00
2023-04-19T00:20:45.295Z,468.00
2023-04-19T00:21:45.297Z,470.00
2023-04-19T00:22:45.291Z,468.00
2023-04-19T00:23:45.331Z,467.00
2023-04-19T00:24:45.306Z,466.00
2023-04-19T00:25:45.331Z,469.00
2023-04-19T00:26:45.326Z,469.00
2023-04-19T00:27:45.326Z,471.00
2023-04-19T00:28:45.357Z,474.00
2023-04-19T00:29:45.329Z,473.00
2023-04-19T00:30:45.415Z,469.00
2023-04-19T00:31:45.330Z,471.00
2023-04-19T00:32:45.383Z,473.00
2023-04-19T00:33:46.787Z,474.00
2023-04-19T00:34:45.393Z,476.00
2023-04-19T00:35:45.389Z,475.00
2023-04-19T00:36:45.402Z,476.00
2023-04-19T00:37:45.403Z,475.00
2023-04-19T00:38:45.432Z,471.00
2023-04-19T00:39:45.409Z,470.00
2023-04-19T00:40:45.433Z,470.00
2023-04-19T00:41:45.399Z,467.00
2023-04-19T00:42:45.468Z,468.00
2023-04-19T00:43:45.438Z,469.00
2023-04-19T00:44:45.412Z,465.00
2023-04-19T00:45:45.453Z,465.00
2023-04-19T00:46:45.493Z,467.00
2023-04-19T00:47:45.437Z,468.00
2023-04-19T00:48:45.439Z,468.00
2023-04-19T00:49:45.434Z,469.00
2023-04-19T00:50:45.457Z,469.00
2023-04-19T00:51:45.396Z,471.00
2023-04-19T00:52:45.423Z,472.00
2023-04-19T00:53:45.393Z,471.00
2023-04-19T00:54:45.404Z,471.00
2023-04-19T00:55:45.445Z,470.00
2023-04-19T00:56:45.401Z,466.00
2023-04-19T00:57:45.414Z,469.00
2023-04-19T00:58:45.421Z,469.00
2023-04-19T00:59:45.410Z,470.00
2023-04-19T01:00:45.383Z,473.00
2023-04-19T01:01:45.434Z,470.00
2023-04-19T01:02:45.470Z,470.00
2023-04-19T01:03:45.548Z,470.00
2023-04-19T01:04:45.401Z,471.00
2023-04-19T01:05:45.399Z,471.00
2023-04-19T01:06:45.397Z,470.00
2023-04-19T01:07:45.407Z,466.00
2023-04-19T01:08:45.397Z,470.00
2023-04-19T01:09:45.387Z,472.00
2023-04-19T01:10:45.378Z,471.00
2023-04-19T01:11:45.403Z,471.00
2023-04-19T01:12:45.399Z,472.00
2023-04-19T01:13:45.417Z,473.00
2023-04-19T01:14:45.404Z,470.00
2023-04-19T01:15:45.461Z,470.00
2023-04-19T01:16:45.421Z,470.00
2023-04-19T01:17:45.446Z,472.00
2023-04-19T01:18:45.426Z,471.00
2023-04-19T01:19:45.419Z,474.00
2023-04-19T01:20:45.442Z,472.00
2023-04-19T01:21:45.407Z,472.00
2023-04-19T01:22:45.430Z,469.00
2023-04-19T01:23:45.432Z,468.00
2023-04-19T01:24:45.407Z,469.00
2023-04-19T01:25:45.395Z,467.00
2023-04-19T01:26:45.418Z,466.00
2023-04-19T01:27:45.440Z,466.00
2023-04-19T01:28:45.428Z,468.00
2023-04-19T01:29:45.421Z,469.00
2023-04-19T01:30:45.421Z,467.00
2023-04-19T01:31:45.485Z,468.00
2023-04-19T01:32:45.527Z,468.00
2023-04-19T01:33:45.472Z,471.00
2023-04-19T01:34:46.294Z,469.00
2023-04-19T01:35:45.413Z,470.00
2023-04-19T01:36:45.446Z,471.00
2023-04-19T01:37:45.480Z,473.00
2023-04-19T01:38:45.448Z,472.00
2023-04-19T01:39:45.487Z,468.00
2023-04-19T01:40:45.465Z,466.00
2023-04-19T01:41:45.524Z,463.00
2023-04-19T01:42:45.496Z,462.00
2023-04-19T01:43:45.535Z,463.00
2023-04-19T01:44:45.522Z,465.00
2023-04-19T01:45:45.536Z,467.00
2023-04-19T01:46:45.544Z,468.00
2023-04-19T01:47:45.532Z,471.00
2023-04-19T01:48:45.537Z,467.00
2023-04-19T01:49:45.560Z,466.00
2023-04-19T01:50:45.533Z,467.00
2023-04-19T01:51:45.517Z,469.00
2023-04-19T01:52:45.579Z,466.00
2023-04-19T01:53:45.574Z,467.00
2023-04-19T01:54:45.543Z,467.00
2023-04-19T01:55:45.543Z,465.00
2023-04-19T01:56:45.571Z,464.00
2023-04-19T01:57:45.583Z,461.00
2023-04-19T01:58:45.587Z,461.00
2023-04-19T01:59:45.615Z,459.00
2023-04-19T02:00:45.683Z,461.00
2023-04-19T02:01:45.642Z,458.00
2023-04-19T02:02:45.727Z,458.00
2023-04-19T02:03:45.771Z,455.00
2023-04-19T02:04:45.667Z,458.00
2023-04-19T02:05:45.650Z,461.00
2023-04-19T02:06:45.653Z,462.00
2023-04-19T02:07:45.662Z,464.00
2023-04-19T02:08:45.716Z,465.00
2023-04-19T02:09:45.692Z,466.00
2023-04-19T02:10:45.712Z,463.00
2023-04-19T02:11:45.723Z,462.00
2023-04-19T02:12:45.759Z,462.00
2023-04-19T02:13:45.788Z,461.00
2023-04-19T02:14:45.793Z,459.00
2023-04-19T02:15:45.806Z,461.00
2023-04-19T02:16:45.967Z,462.00
2023-04-19T02:17:45.944Z,459.00
2023-04-19T02:18:45.920Z,458.00
2023-04-19T02:19:45.895Z,456.00
2023-04-19T02:20:45.871Z,460.00
2023-04-19T02:21:45.891Z,465.00
2023-04-19T02:22:45.911Z,466.00
2023-04-19T02:23:45.950Z,465.00
2023-04-19T02:24:45.984Z,466.00
2023-04-19T02:25:45.958Z,466.00
2023-04-19T02:26:46.008Z,470.00
2023-04-19T02:27:45.986Z,471.00
2023-04-19T02:28:46.046Z,473.00
2023-04-19T02:29:46.036Z,477.00
2023-04-19T02:30:46.092Z,474.00
2023-04-19T02:31:46.098Z,471.00
2023-04-19T02:32:46.137Z,468.00
2023-04-19T02:33:46.158Z,470.00
2023-04-19T02:34:46.132Z,469.00
2023-04-19T02:35:46.168Z,469.00
2023-04-19T02:36:46.190Z,472.00
2023-04-19T02:37:46.228Z,474.00
2023-04-19T02:38:46.208Z,476.00
2023-04-19T02:39:46.273Z,475.00
2023-04-19T02:40:46.272Z,474.00
2023-04-19T02:41:46.259Z,472.00
2023-04-19T02:42:46.313Z,471.00
2023-04-19T02:43:46.335Z,467.00
2023-04-19T02:44:46.310Z,467.00
2023-04-19T02:45:46.353Z,466.00
2023-04-19T02:46:46.379Z,467.00
2023-04-19T02:47:46.430Z,469.00
2023-04-19T02:48:46.428Z,469.00
2023-04-19T02:49:46.414Z,470.00
2023-04-19T02:50:46.455Z,467.00
2023-04-19T02:51:46.445Z,470.00
2023-04-19T02:52:46.434Z,470.00
2023-04-19T02:53:46.514Z,468.00
2023-04-19T02:54:46.518Z,469.00
2023-04-19T02:55:46.537Z,469.00
2023-04-19T02:56:46.591Z,469.00
2023-04-19T02:57:46.558Z,471.00
2023-04-19T02:58:46.629Z,469.00
2023-04-19T02:59:46.609Z,471.00
2023-04-19T03:00:46.671Z,470.00
2023-04-19T03:01:46.852Z,471.00
2023-04-19T03:02:46.800Z,469.00
2023-04-19T03:03:46.880Z,468.00
2023-04-19T03:04:46.783Z,465.00
2023-04-19T03:05:46.757Z,468.00
2023-04-19T03:06:46.815Z,470.00
2023-04-19T03:07:46.831Z,470.00
2023-04-19T03:08:46.879Z,468.00
2023-04-19T03:09:46.887Z,470.00
2023-04-19T03:10:46.894Z,471.00
2023-04-19T03:11:46.914Z,469.00
2023-04-19T03:12:46.980Z,468.00
2023-04-19T03:13:46.960Z,471.00
2023-04-19T03:14:47.024Z,474.00
2023-04-19T03:15:47.029Z,475.00
2023-04-19T03:16:47.039Z,477.00
2023-04-19T03:17:47.142Z,476.00
2023-04-19T03:18:49.238Z,476.00
2023-04-19T03:19:47.135Z,474.00
2023-04-19T03:20:47.181Z,472.00
2023-04-19T03:21:47.200Z,470.00
2023-04-19T03:22:47.204Z,472.00
2023-04-19T03:23:47.231Z,473.00
2023-04-19T03:24:47.285Z,471.00
2023-04-19T03:25:47.308Z,469.00
2023-04-19T03:26:47.329Z,467.00
2023-04-19T03:27:47.388Z,465.00
2023-04-19T03:28:47.356Z,467.00
2023-04-19T03:29:48.880Z,467.00
2023-04-19T03:30:47.401Z,465.00
2023-04-19T03:31:47.494Z,469.00
2023-04-19T03:32:47.513Z,469.00
2023-04-19T03:33:47.525Z,468.00
2023-04-19T03:34:47.543Z,470.00
2023-04-19T03:35:47.594Z,473.00
2023-04-19T03:36:47.594Z,472.00
2023-04-19T03:37:47.658Z,473.00
2023-04-19T03:38:47.661Z,471.00
2023-04-19T03:39:47.713Z,472.00
2023-04-19T03:40:47.726Z,472.00
2023-04-19T03:41:47.786Z,472.00
2023-04-19T03:42:47.777Z,475.00
2023-04-19T03:43:47.830Z,471.00
2023-04-19T03:44:47.838Z,473.00
2023-04-19T03:45:47.936Z,471.00
2023-04-19T03:46:47.975Z,471.00
2023-04-19T03:47:47.997Z,473.00
2023-04-19T03:48:48.000Z,473.00
2023-04-19T03:49:48.050Z,471.00
2023-04-19T03:50:48.045Z,469.00
2023-04-19T03:51:48.085Z,467.00
2023-04-19T03:52:48.112Z,467.00
2023-04-19T03:53:48.148Z,467.00
2023-04-19T03:54:48.185Z,466.00
2023-04-19T03:55:48.225Z,466.00
2023-04-19T03:56:48.273Z,466.00
2023-04-19T03:57:48.273Z,464.00
2023-04-19T03:58:48.332Z,466.00
2023-04-19T03:59:48.341Z,465.00
2023-04-19T04:00:48.378Z,465.00
2023-04-19T04:01:48.451Z,464.00
2023-04-19T04:02:48.520Z,466.00
2023-04-19T04:03:48.831Z,465.00
2023-04-19T04:04:48.825Z,465.00
2023-04-19T04:05:48.527Z,466.00
2023-04-19T04:06:48.579Z,466.00
2023-04-19T04:07:48.572Z,466.00
2023-04-19T04:08:48.620Z,467.00
2023-04-19T04:09:48.675Z,468.00
2023-04-19T04:10:48.710Z,468.00
2023-04-19T04:11:48.744Z,469.00
2023-04-19T04:12:48.763Z,469.00
2023-04-19T04:13:48.833Z,471.00
2023-04-19T04:14:48.855Z,469.00
2023-04-19T04:15:48.881Z,468.00
2023-04-19T04:16:49.037Z,464.00
2023-04-19T04:17:48.997Z,465.00
2023-04-19T04:18:48.988Z,465.00
2023-04-19T04:19:48.989Z,465.00
2023-04-19T04:20:49.059Z,468.00
2023-04-19T04:21:49.081Z,471.00
2023-04-19T04:22:49.133Z,472.00
2023-04-19T04:23:49.185Z,471.00
2023-04-19T04:24:49.234Z,468.00
2023-04-19T04:25:49.273Z,471.00
2023-04-19T04:26:49.266Z,471.00
2023-04-19T04:27:49.330Z,470.00
2023-04-19T04:28:49.360Z,467.00
2023-04-19T04:29:49.439Z,470.00
2023-04-19T04:30:49.469Z,469.00
2023-04-19T04:31:49.536Z,468.00
2023-04-19T04:32:49.606Z,467.00
2023-04-19T04:33:49.598Z,465.00
2023-04-19T04:34:49.649Z,465.00
2023-04-19T04:35:49.690Z,464.00
2023-04-19T04:36:49.739Z,464.00
2023-04-19T04:37:49.780Z,470.00
2023-04-19T04:38:49.915Z,469.00
2023-04-19T04:39:49.881Z,468.00
2023-04-19T04:40:49.882Z,468.00
2023-04-19T04:41:49.943Z,467.00
2023-04-19T04:42:50.038Z,470.00
2023-04-19T04:43:58.634Z,470.00
2023-04-19T04:44:51.049Z,470.00
2023-04-19T04:45:50.094Z,469.00
2023-04-19T04:46:50.017Z,471.00
2023-04-19T04:47:50.086Z,473.00
2023-04-19T04:48:50.082Z,476.00
2023-04-19T04:49:50.001Z,474.00
2023-04-19T04:50:50.016Z,473.00
2023-04-19T04:51:49.998Z,474.00
2023-04-19T04:52:49.992Z,476.00
2023-04-19T04:53:49.999Z,479.00
2023-04-19T04:54:50.011Z,476.00
2023-04-19T04:55:49.981Z,477.00
2023-04-19T04:56:50.039Z,475.00
2023-04-19T04:57:50.050Z,476.00
2023-04-19T04:58:50.074Z,475.00
2023-04-19T04:59:50.110Z,477.00
2023-04-19T05:00:50.219Z,477.00
2023-04-19T05:01:50.265Z,478.00
2023-04-19T05:02:50.282Z,480.00
2023-04-19T05:03:50.231Z,480.00
2023-04-19T05:04:50.265Z,480.00
2023-04-19T05:05:50.249Z,480.00
2023-04-19T05:06:50.284Z,482.00
2023-04-19T05:07:50.265Z,480.00
2023-04-19T05:08:50.284Z,482.00
2023-04-19T05:09:50.357Z,481.00
2023-04-19T05:10:50.349Z,486.00
2023-04-19T05:11:50.381Z,487.00
2023-04-19T05:12:50.414Z,486.00
2023-04-19T05:13:50.419Z,487.00
2023-04-19T05:14:50.418Z,488.00
2023-04-19T05:15:50.450Z,485.00
2023-04-19T05:16:50.606Z,483.00
2023-04-19T05:17:50.578Z,483.00
2023-04-19T05:18:50.499Z,482.00
2023-04-19T05:19:50.533Z,482.00
2023-04-19T05:20:50.622Z,483.00
2023-04-19T05:21:50.529Z,485.00
2023-04-19T05:22:50.560Z,485.00
2023-04-19T05:23:50.597Z,486.00
2023-04-19T05:24:50.595Z,485.00
2023-04-19T05:25:50.650Z,484.00
2023-04-19T05:26:50.688Z,484.00
2023-04-19T05:27:50.629Z,483.00
2023-04-19T05:28:50.676Z,484.00
2023-04-19T05:29:50.680Z,482.00
2023-04-19T05:30:50.726Z,481.00
2023-04-19T05:31:50.895Z,482.00
2023-04-19T05:32:50.749Z,482.00
2023-04-19T05:33:50.777Z,483.00
2023-04-19T05:34:50.787Z,482.00
2023-04-19T05:35:50.785Z,480.00
2023-04-19T05:36:50.894Z,482.00
2023-04-19T05:37:50.823Z,484.00
2023-04-19T05:38:50.832Z,485.00
2023-04-19T05:39:50.848Z,484.00
2023-04-19T05:40:50.854Z,486.00
2023-04-19T05:41:50.855Z,489.00
2023-04-19T05:42:50.837Z,495.00
2023-04-19T05:43:50.836Z,506.00
2023-04-19T05:44:50.861Z,517.00
2023-04-19T05:45:50.868Z,527.00
2023-04-19T05:46:50.819Z,544.00
2023-04-19T05:47:50.860Z,581.00
2023-04-19T05:48:50.825Z,594.00
2023-04-19T05:49:50.844Z,614.00
2023-04-19T05:50:50.820Z,681.00
2023-04-19T05:51:50.871Z,721.00
2023-04-19T05:52:50.933Z,747.00
2023-04-19T05:53:51.366Z,836.00
2023-04-19T05:54:51.045Z,832.00
2023-04-19T05:55:51.131Z,826.00
2023-04-19T05:56:51.152Z,730.00
2023-04-19T05:57:51.235Z,722.00
2023-04-19T05:58:51.386Z,722.00
2023-04-19T05:59:51.316Z,718.00
2023-04-19T06:00:51.365Z,712.00
2023-04-19T06:01:51.447Z,704.00
2023-04-19T06:02:51.496Z,701.00
2023-04-19T06:03:52.167Z,693.00
2023-04-19T06:04:51.557Z,688.00
2023-04-19T06:05:51.580Z,682.00
2023-04-19T06:06:51.485Z,673.00
2023-04-19T06:07:55.758Z,665.00
2023-04-19T06:08:54.977Z,659.00
2023-04-19T06:09:51.547Z,650.00
2023-04-19T06:10:55.787Z,638.00
2023-04-19T06:11:52.495Z,634.00
2023-04-19T06:12:51.576Z,626.00
2023-04-19T06:13:51.494Z,624.00
2023-04-19T06:14:51.455Z,619.00
2023-04-19T06:15:51.490Z,618.00
2023-04-19T06:16:51.487Z,612.00
2023-04-19T06:17:51.461Z,608.00
2023-04-19T06:18:51.443Z,606.00
2023-04-19T06:19:51.447Z,604.00
2023-04-19T06:20:51.409Z,604.00
2023-04-19T06:21:51.427Z,603.00
2023-04-19T06:22:51.421Z,597.00
2023-04-19T06:23:51.404Z,595.00
2023-04-19T06:24:51.420Z,591.00
2023-04-19T06:25:51.365Z,592.00
2023-04-19T06:26:51.385Z,590.00
2023-04-19T06:27:51.382Z,589.00
2023-04-19T06:28:51.386Z,586.00
2023-04-19T06:29:51.503Z,584.00
2023-04-19T06:30:51.349Z,584.00
2023-04-19T06:31:51.416Z,585.00
2023-04-19T06:32:51.366Z,576.00
2023-04-19T06:33:51.342Z,579.00
2023-04-19T06:34:51.348Z,575.00
2023-04-19T06:35:51.333Z,565.00
2023-04-19T06:36:51.314Z,563.00
2023-04-19T06:37:52.106Z,564.00
2023-04-19T06:38:51.357Z,565.00
2023-04-19T06:39:51.890Z,563.00
2023-04-19T06:40:51.467Z,563.00
2023-04-19T06:41:51.404Z,560.00
2023-04-19T06:42:51.460Z,558.00
2023-04-19T06:43:52.395Z,554.00
2023-04-19T06:44:51.810Z,551.00
2023-04-19T06:45:51.529Z,548.00
2023-04-19T06:46:51.494Z,546.00
2023-04-19T06:47:51.602Z,550.00
2023-04-19T06:48:51.508Z,590.00
2023-04-19T06:49:51.896Z,674.00
2023-04-19T06:50:51.570Z,655.00
2023-04-19T06:51:51.620Z,634.00
2023-04-19T06:52:51.680Z,640.00
2023-04-19T06:53:51.722Z,660.00
2023-04-19T06:54:51.808Z,731.00
2023-04-19T06:55:51.835Z,771.00
2023-04-19T06:56:51.906Z,796.00
2023-04-19T06:57:51.927Z,803.00
2023-04-19T06:58:51.955Z,808.00
2023-04-19T06:59:52.054Z,806.00
2023-04-19T07:00:52.039Z,806.00
2023-04-19T07:01:52.128Z,814.00
2023-04-19T07:02:52.191Z,833.00
2023-04-19T07:03:53.157Z,860.00
2023-04-19T07:04:52.578Z,862.00
2023-04-19T07:05:52.124Z,867.00
2023-04-19T07:06:52.153Z,866.00
2023-04-19T07:07:52.145Z,868.00
2023-04-19T07:08:52.116Z,898.00
2023-04-19T07:09:52.134Z,898.00
2023-04-19T07:10:52.109Z,928.00
2023-04-19T07:11:52.321Z,916.00
2023-04-19T07:12:52.116Z,922.00
2023-04-19T07:13:52.118Z,928.00
2023-04-19T07:14:52.118Z,940.00
2023-04-19T07:15:52.127Z,953.00
2023-04-19T07:16:52.749Z,960.00
2023-04-19T07:17:52.237Z,959.00
2023-04-19T07:18:52.221Z,953.00
2023-04-19T07:19:52.275Z,952.00
2023-04-19T07:20:52.330Z,955.00
2023-04-19T07:21:52.376Z,951.00
2023-04-19T07:22:52.447Z,954.00
2023-04-19T07:23:52.531Z,956.00
2023-04-19T07:24:52.594Z,964.00
2023-04-19T07:25:52.627Z,977.00
2023-04-19T07:26:52.704Z,979.00
2023-04-19T07:27:52.764Z,977.00
2023-04-19T07:28:52.809Z,980.00
2023-04-19T07:29:52.870Z,988.00
2023-04-19T07:30:52.953Z,996.00
2023-04-19T07:31:52.997Z,1000.00
2023-04-19T07:32:53.008Z,1001.00
2023-04-19T07:33:53.057Z,1005.00
2023-04-19T07:34:53.118Z,1011.00
2023-04-19T07:35:53.165Z,1011.00
2023-04-19T07:36:53.194Z,1041.00
2023-04-19T07:37:53.243Z,1036.00
2023-04-19T07:38:53.612Z,1037.00
2023-04-19T07:39:53.425Z,1042.00
2023-04-19T07:40:53.372Z,1043.00
2023-04-19T07:41:53.420Z,1048.00
2023-04-19T07:42:53.471Z,1079.00
2023-04-19T07:43:53.541Z,1104.00
2023-04-19T07:44:53.934Z,1087.00
2023-04-19T07:45:53.599Z,1037.00
2023-04-19T07:46:53.841Z,1001.00
2023-04-19T07:47:53.813Z,1001.00
2023-04-19T07:48:53.787Z,1003.00
2023-04-19T07:49:53.856Z,999.00
2023-04-19T07:50:53.888Z,991.00
2023-04-19T07:51:53.940Z,977.00
2023-04-19T07:52:53.974Z,963.00
2023-04-19T07:53:54.001Z,937.00
2023-04-19T07:54:54.026Z,922.00
2023-04-19T07:55:54.002Z,911.00
2023-04-19T07:56:53.971Z,905.00
2023-04-19T07:57:53.984Z,885.00
2023-04-19T07:59:07.006Z,868.00
2023-04-19T07:59:54.976Z,847.00
2023-04-19T08:00:54.076Z,833.00
2023-04-19T08:01:54.097Z,823.00
2023-04-19T08:02:54.076Z,791.00
2023-04-19T08:03:54.222Z,775.00
2023-04-19T08:04:53.985Z,766.00
2023-04-19T08:05:54.067Z,763.00
2023-04-19T08:06:53.910Z,754.00
2023-04-19T08:07:54.920Z,742.00
2023-04-19T08:08:53.929Z,732.00
2023-04-19T08:09:53.940Z,711.00
2023-04-19T08:10:53.916Z,701.00
2023-04-19T08:11:53.891Z,702.00
2023-04-19T08:13:05.020Z,696.00
2023-04-19T08:14:06.683Z,696.00
2023-04-19T08:15:04.740Z,691.00
2023-04-19T08:17:53.875Z,672.00
2023-04-19T08:18:53.844Z,658.00
2023-04-19T08:19:53.909Z,652.00
2023-04-19T08:20:53.878Z,650.00
2023-04-19T08:21:53.860Z,644.00
2023-04-19T08:22:53.809Z,642.00
2023-04-19T08:24:53.838Z,636.00
2023-04-19T08:25:53.835Z,633.00
2023-04-19T08:26:53.945Z,629.00
2023-04-19T08:27:53.784Z,624.00
2023-04-19T08:28:53.792Z,622.00
2023-04-19T08:29:53.759Z,619.00
2023-04-19T08:30:53.770Z,616.00
2023-04-19T08:31:53.859Z,610.00
2023-04-19T08:32:56.899Z,604.00
2023-04-19T08:33:53.767Z,596.00
2023-04-19T08:34:53.954Z,590.00
2023-04-19T08:35:53.757Z,589.00
2023-04-19T08:37:03.250Z,585.00
2023-04-19T08:37:54.751Z,583.00
2023-04-19T08:39:04.275Z,584.00
2023-04-19T08:39:54.945Z,586.00
2023-04-19T08:40:53.728Z,583.00
2023-04-19T08:42:04.854Z,581.00
2023-04-19T08:42:54.681Z,582.00
2023-04-19T08:43:53.703Z,579.00
2023-04-19T08:45:22.584Z,578.00
2023-04-19T08:45:54.692Z,579.00
2023-04-19T08:46:53.712Z,578.00
2023-04-19T08:48:00.811Z,576.00
2023-04-19T08:48:54.700Z,578.00
2023-04-19T08:50:08.685Z,576.00
2023-04-19T08:51:04.266Z,570.00
2023-04-19T08:51:54.636Z,563.00
2023-04-19T08:52:58.707Z,559.00
2023-04-19T08:53:54.625Z,559.00
2023-04-19T08:54:53.628Z,559.00
2023-04-19T08:56:53.622Z,559.00
2023-04-19T08:57:53.611Z,555.00
2023-04-19T08:59:07.558Z,553.00
2023-04-19T08:59:54.615Z,551.00
2023-04-19T09:00:53.602Z,549.00
2023-04-19T09:01:53.569Z,548.00
2023-04-19T09:02:53.700Z,546.00
2023-04-19T09:04:03.334Z,543.00
2023-04-19T09:04:54.894Z,537.00
2023-04-19T09:05:53.755Z,532.00
2023-04-19T09:06:53.548Z,530.00
2023-04-19T09:07:53.508Z,527.00
2023-04-19T09:08:53.506Z,528.00
2023-04-19T09:10:02.542Z,530.00
2023-04-19T09:10:54.536Z,531.00
2023-04-19T09:11:53.459Z,530.00
2023-04-19T09:12:53.483Z,528.00
2023-04-19T09:13:53.475Z,526.00
2023-04-19T09:15:01.809Z,522.00
2023-04-19T09:15:54.493Z,521.00
2023-04-19T09:16:53.528Z,521.00
2023-04-19T09:17:53.510Z,519.00
2023-04-19T09:19:02.525Z,518.00
2023-04-19T09:19:54.427Z,515.00
2023-04-19T09:20:53.442Z,515.00
2023-04-19T09:21:53.447Z,515.00
2023-04-19T09:22:53.389Z,514.00
2023-04-19T09:23:53.382Z,516.00
2023-04-19T09:25:30.047Z,514.00
2023-04-19T09:26:53.408Z,513.00
2023-04-19T09:27:53.389Z,509.00
2023-04-19T09:28:53.389Z,508.00
2023-04-19T09:29:53.376Z,506.00
2023-04-19T09:31:00.591Z,505.00
2023-04-19T09:31:54.532Z,505.00
2023-04-19T09:32:53.511Z,507.00
2023-04-19T09:33:53.318Z,506.00
2023-04-19T09:34:53.360Z,506.00
2023-04-19T09:35:53.347Z,507.00
2023-04-19T09:37:04.441Z,508.00
2023-04-19T09:38:04.704Z,506.00
2023-04-19T09:38:54.307Z,505.00
2023-04-19T09:39:53.264Z,506.00
2023-04-19T09:40:53.463Z,507.00
2023-04-19T09:41:53.301Z,547.00
2023-04-19T09:43:04.345Z,590.00
2023-04-19T09:45:21.471Z,654.00
2023-04-19T09:45:54.240Z,694.00
2023-04-19T09:46:53.997Z,690.00
2023-04-19T09:47:53.230Z,690.00
2023-04-19T09:48:53.221Z,688.00
2023-04-19T09:49:53.432Z,686.00
2023-04-19T09:50:57.338Z,684.00
2023-04-19T09:51:54.210Z,679.00
2023-04-19T09:52:53.243Z,674.00
2023-04-19T09:53:53.237Z,669.00
2023-04-19T09:54:53.157Z,665.00
2023-04-19T09:56:01.567Z,661.00
2023-04-19T09:56:57.470Z,658.00
2023-04-19T09:57:53.137Z,656.00
2023-04-19T09:58:58.869Z,649.00
2023-04-19T09:59:54.116Z,642.00
2023-04-19T10:00:59.878Z,638.00
2023-04-19T10:01:54.174Z,632.00
2023-04-19T10:02:53.259Z,632.00
2023-04-19T10:03:53.468Z,627.00
2023-04-19T10:05:11.225Z,619.00
2023-04-19T10:05:54.100Z,616.00
2023-04-19T10:07:57.452Z,605.00
2023-04-19T10:08:54.279Z,602.00
2023-04-19T10:09:55.048Z,598.00
2023-04-19T10:10:54.090Z,596.00
2023-04-19T10:11:58.131Z,591.00
2023-04-19T10:13:53.094Z,585.00
2023-04-19T10:14:53.066Z,583.00
2023-04-19T10:15:59.117Z,582.00
2023-04-19T10:16:54.082Z,580.00
2023-04-19T10:17:53.100Z,575.00
2023-04-19T10:18:53.038Z,571.00
2023-04-19T10:19:52.990Z,570.00
2023-04-19T10:20:53.019Z,567.00
2023-04-19T10:21:52.992Z,564.00
2023-04-19T10:22:52.998Z,565.00
2023-04-19T10:23:52.977Z,565.00
2023-04-19T10:24:52.977Z,562.00
2023-04-19T10:25:52.974Z,562.00
2023-04-19T10:26:52.952Z,561.00
2023-04-19T10:27:52.967Z,556.00
2023-04-19T10:28:52.982Z,553.00
2023-04-19T10:29:52.960Z,552.00
2023-04-19T10:30:52.941Z,551.00
2023-04-19T10:31:53.018Z,552.00
2023-04-19T10:32:53.028Z,551.00
2023-04-19T10:33:52.968Z,549.00
2023-04-19T10:34:52.975Z,547.00
2023-04-19T10:35:53.543Z,547.00
2023-04-19T10:36:53.042Z,545.00
2023-04-19T10:37:53.010Z,583.00
2023-04-19T10:38:53.067Z,658.00
2023-04-19T10:39:53.118Z,653.00
2023-04-19T10:40:53.172Z,698.00
2023-04-19T10:41:53.259Z,735.00
2023-04-19T10:42:53.279Z,799.00
2023-04-19T10:43:53.326Z,855.00
2023-04-19T10:44:53.411Z,861.00
2023-04-19T10:45:53.557Z,851.00
2023-04-19T10:46:53.479Z,839.00
2023-04-19T10:47:53.649Z,837.00
2023-04-19T10:48:53.637Z,886.00
2023-04-19T10:49:53.660Z,889.00
2023-04-19T10:50:53.989Z,920.00
2023-04-19T10:51:53.716Z,913.00
2023-04-19T10:52:53.758Z,918.00
2023-04-19T10:53:53.825Z,917.00
2023-04-19T10:54:53.843Z,928.00
2023-04-19T10:55:53.897Z,931.00
2023-04-19T10:56:53.957Z,929.00
2023-04-19T10:57:54.064Z,926.00
2023-04-19T10:58:54.034Z,931.00
2023-04-19T10:59:54.044Z,956.00
2023-04-19T11:00:54.102Z,997.00
2023-04-19T11:01:54.365Z,1066.00
2023-04-19T11:02:54.239Z,1034.00
2023-04-19T11:03:54.627Z,1020.00
2023-04-19T11:04:54.261Z,995.00
2023-04-19T11:05:54.477Z,1024.00
2023-04-19T11:06:54.314Z,1037.00
2023-04-19T11:07:54.345Z,1042.00
2023-04-19T11:08:54.356Z,989.00
2023-04-19T11:09:54.414Z,1006.00
2023-04-19T11:10:54.456Z,1018.00
2023-04-19T11:11:54.463Z,1029.00
2023-04-19T11:12:54.483Z,1033.00
2023-04-19T11:13:54.520Z,1027.00
2023-04-19T11:14:54.600Z,1013.00
2023-04-19T11:15:54.609Z,1002.00
2023-04-19T11:16:54.660Z,990.00
2023-04-19T11:18:08.786Z,983.00
2023-04-19T11:18:55.626Z,959.00
2023-04-19T11:19:54.605Z,944.00
2023-04-19T11:20:54.639Z,939.00
2023-04-19T11:21:54.603Z,935.00
2023-04-19T11:22:54.614Z,928.00
2023-04-19T11:23:54.583Z,912.00
2023-04-19T11:24:54.573Z,894.00
2023-04-19T11:25:54.565Z,886.00
2023-04-19T11:26:55.689Z,882.00
2023-04-19T11:27:54.557Z,881.00
2023-04-19T11:28:54.571Z,875.00
2023-04-19T11:29:54.572Z,874.00
2023-04-19T11:30:54.574Z,867.00
2023-04-19T11:31:55.008Z,865.00
2023-04-19T11:32:54.599Z,859.00
2023-04-19T11:33:54.515Z,854.00
2023-04-19T11:34:54.528Z,851.00
2023-04-19T11:35:54.516Z,848.00
2023-04-19T11:36:54.553Z,843.00
2023-04-19T11:37:54.549Z,834.00
2023-04-19T11:38:54.555Z,821.00
2023-04-19T11:39:54.567Z,815.00
2023-04-19T11:40:54.613Z,802.00
2023-04-19T11:41:54.615Z,794.00
2023-04-19T11:42:54.673Z,787.00
2023-04-19T11:43:54.664Z,784.00
2023-04-19T11:44:54.784Z,779.00
2023-04-19T11:45:54.756Z,776.00
2023-04-19T11:46:54.817Z,773.00
2023-04-19T11:47:54.837Z,766.00
2023-04-19T11:48:54.823Z,756.00
2023-04-19T11:49:54.842Z,744.00
2023-04-19T11:50:54.914Z,728.00
2023-04-19T11:51:54.901Z,723.00
2023-04-19T11:52:54.950Z,722.00
2023-04-19T11:53:55.029Z,729.00
2023-04-19T11:54:54.997Z,729.00
2023-04-19T11:55:55.022Z,728.00
2023-04-19T11:56:55.037Z,711.00
2023-04-19T11:57:55.078Z,703.00
2023-04-19T11:58:55.110Z,703.00
2023-04-19T11:59:55.123Z,705.00
2023-04-19T12:00:55.271Z,703.00
2023-04-19T12:01:55.211Z,702.00
2023-04-19T12:02:55.475Z,700.00
2023-04-19T12:03:55.414Z,695.00
2023-04-19T12:04:55.357Z,690.00
2023-04-19T12:05:55.347Z,688.00
2023-04-19T12:06:55.308Z,689.00
2023-04-19T12:07:55.313Z,685.00
2023-04-19T12:08:55.330Z,680.00
2023-04-19T12:09:55.387Z,676.00
2023-04-19T12:10:55.395Z,670.00
2023-04-19T12:11:55.442Z,668.00
2023-04-19T12:12:55.443Z,667.00
2023-04-19T12:13:55.482Z,665.00
2023-04-19T12:14:55.522Z,660.00
2023-04-19T12:15:55.568Z,637.00
2023-04-19T12:16:55.624Z,636.00
2023-04-19T12:17:57.525Z,637.00
2023-04-19T12:18:55.652Z,635.00
2023-04-19T12:19:55.676Z,633.00
2023-04-19T12:20:55.694Z,632.00
2023-04-19T12:21:55.753Z,629.00
2023-04-19T12:22:55.767Z,626.00
2023-04-19T12:23:55.801Z,624.00
2023-04-19T12:24:55.834Z,621.00
2023-04-19T12:25:55.836Z,617.00
2023-04-19T12:26:56.529Z,615.00
2023-04-19T12:27:55.877Z,613.00
2023-04-19T12:28:55.936Z,612.00
2023-04-19T12:29:55.979Z,606.00
2023-04-19T12:30:55.959Z,602.00
2023-04-19T12:31:56.130Z,602.00
2023-04-19T12:32:56.101Z,598.00
2023-04-19T12:33:56.091Z,596.00
2023-04-19T12:34:56.076Z,595.00
2023-04-19T12:35:56.103Z,597.00